Time;durP1;ratioP1;P1;durP2;ratioP2;P2;SDS_P1;SDS_P2;PMS_P1;PMS_P2;Temp;Humidity;BMP_temperature;BMP_pressure;BME280_temperature;BME280_humidity;BME280_pressure;Samples;Min_cycle;Max_cycle;Signal;HPM_P1;HPM_P2
2021/03/20 00:01:26;;;;;;;7.60;6.80;;;4.80;99.90;;;;;;5035999;28;20472;-71
2021/03/20 00:03:51;;;;;;;6.80;6.20;;;4.70;99.90;;;;;;5022716;28;20497;-71
2021/03/20 00:06:20;;;;;;;6.53;5.93;;;4.60;99.90;;;;;;5015959;28;20461;-71
2021/03/20 00:08:48;;;;;;;6.97;6.33;;;4.60;99.90;;;;;;5015510;28;20189;-71
2021/03/20 00:11:15;;;;;;;7.33;6.53;;;4.40;99.90;;;;;;5016017;28;20558;-72
2021/03/20 00:13:42;;;;;;;7.60;5.80;;;4.30;99.90;;;;;;5015534;28;20418;-70
2021/03/20 00:16:08;;;;;;;8.23;6.50;;;4.30;99.90;;;;;;5016523;28;20461;-71
2021/03/20 00:18:34;;;;;;;7.47;6.67;;;4.30;99.90;;;;;;5015180;28;20406;-70
2021/03/20 00:21:00;;;;;;;6.87;6.27;;;4.30;99.90;;;;;;5016035;28;20450;-70
2021/03/20 00:23:25;;;;;;;7.77;6.97;;;4.20;99.90;;;;;;5014713;28;20182;-71
2021/03/20 00:25:51;;;;;;;7.00;6.30;;;4.10;99.90;;;;;;5015017;28;20407;-71
2021/03/20 00:28:23;;;;;;;7.57;6.43;;;4.00;99.90;;;;;;5014557;28;20223;-70
2021/03/20 00:30:52;;;;;;;7.30;6.33;;;4.00;99.90;;;;;;5016095;28;20223;-71
2021/03/20 00:33:18;;;;;;;7.23;6.40;;;3.90;99.90;;;;;;5015010;28;20462;-71
2021/03/20 00:35:44;;;;;;;9.30;6.93;;;3.90;99.90;;;;;;5015194;28;20453;-71
2021/03/20 00:38:10;;;;;;;7.40;6.70;;;3.90;99.90;;;;;;5014894;28;20413;-72
2021/03/20 00:40:35;;;;;;;7.80;6.83;;;3.90;99.90;;;;;;5015765;28;20456;-71
2021/03/20 00:43:01;;;;;;;8.57;6.43;;;3.80;99.90;;;;;;5015107;28;20176;-71
2021/03/20 00:45:28;;;;;;;6.70;6.10;;;3.90;99.90;;;;;;5014820;28;20173;-71
2021/03/20 00:47:55;;;;;;;6.70;5.97;;;3.80;99.90;;;;;;5013204;28;20179;-70
2021/03/20 00:50:23;;;;;;;8.17;6.53;;;3.90;99.90;;;;;;5014827;28;20486;-71
2021/03/20 00:52:49;;;;;;;7.13;6.10;;;3.80;99.90;;;;;;5015422;28;20843;-71
2021/03/20 00:55:15;;;;;;;7.07;6.37;;;3.70;99.90;;;;;;5014676;28;20408;-71
2021/03/20 00:57:41;;;;;;;7.13;6.43;;;3.70;99.90;;;;;;5014739;28;20642;-71
2021/03/20 01:00:11;;;;;;;7.57;5.90;;;3.60;99.90;;;;;;5014618;28;20513;-70
2021/03/20 01:02:37;;;;;;;6.60;6.00;;;3.60;99.90;;;;;;5015443;28;20472;-70
2021/03/20 01:05:03;;;;;;;7.37;6.67;;;3.70;99.90;;;;;;5014796;28;20411;-71
2021/03/20 01:07:29;;;;;;;6.40;5.67;;;3.70;99.90;;;;;;5014829;28;20236;-71
2021/03/20 01:09:54;;;;;;;7.80;6.70;;;3.70;99.90;;;;;;5014309;28;20436;-71
2021/03/20 01:12:20;;;;;;;6.20;5.60;;;3.70;99.90;;;;;;5015807;28;20196;-70
2021/03/20 01:14:45;;;;;;;6.20;5.53;;;3.70;99.90;;;;;;5015095;28;20207;-71
2021/03/20 01:17:11;;;;;;;7.70;5.90;;;3.70;99.90;;;;;;5013883;28;20176;-71
2021/03/20 01:19:36;;;;;;;7.13;5.00;;;3.70;99.90;;;;;;5014068;28;20544;-70
2021/03/20 01:22:02;;;;;;;6.57;4.87;;;3.70;99.90;;;;;;5014943;28;20647;-71
2021/03/20 01:24:28;;;;;;;7.47;5.70;;;3.60;99.90;;;;;;5015818;28;20191;-70
2021/03/20 01:26:53;;;;;;;5.77;4.50;;;3.60;99.90;;;;;;5014946;28;20441;-69
2021/03/20 01:29:19;;;;;;;4.83;4.17;;;3.60;99.90;;;;;;5014153;28;20265;-72
2021/03/20 01:31:45;;;;;;;5.00;4.13;;;3.60;99.90;;;;;;5013306;28;20235;-71
2021/03/20 01:34:10;;;;;;;4.57;4.13;;;3.60;99.90;;;;;;5022140;28;20594;-70
2021/03/20 01:36:36;;;;;;;3.60;3.30;;;3.50;99.90;;;;;;5022688;28;20803;-70
2021/03/20 01:39:02;;;;;;;4.80;4.30;;;3.50;99.90;;;;;;5013418;28;20268;-70
2021/03/20 01:41:28;;;;;;;3.97;3.57;;;3.40;99.90;;;;;;5014920;28;20305;-70
2021/03/20 01:43:54;;;;;;;3.63;3.30;;;3.30;99.90;;;;;;5016805;28;20505;-70
2021/03/20 01:46:40;;;;;;;4.20;3.53;;;3.20;99.90;;;;;;5016625;28;20255;-69
2021/03/20 01:49:39;;;;;;;3.97;3.60;;;3.20;99.90;;;;;;5014286;28;20701;-70
2021/03/20 01:52:13;;;;;;;4.80;3.20;;;3.20;99.90;;;;;;5013127;28;20467;-72
2021/03/20 01:54:53;;;;;;;4.03;3.00;;;3.30;99.90;;;;;;5014257;28;20773;-71
2021/03/20 01:57:40;;;;;;;4.30;3.60;;;3.30;99.90;;;;;;5015046;28;20421;-71
2021/03/20 02:00:14;;;;;;;3.40;3.10;;;3.30;99.90;;;;;;5014172;28;20430;-70
2021/03/20 02:02:40;;;;;;;3.33;3.03;;;3.20;99.90;;;;;;5012606;28;20418;-71
2021/03/20 02:05:07;;;;;;;4.47;3.47;;;3.10;99.90;;;;;;5014115;28;20407;-70
2021/03/20 02:07:33;;;;;;;6.07;3.27;;;3.00;99.90;;;;;;5014790;28;20423;-71
2021/03/20 02:09:58;;;;;;;3.53;3.23;;;3.00;99.90;;;;;;5014979;28;20457;-71
2021/03/20 02:12:30;;;;;;;3.97;3.57;;;2.80;99.90;;;;;;5015602;28;20199;-71
2021/03/20 02:15:18;;;;;;;6.70;3.20;;;2.80;99.90;;;;;;5015446;28;20180;-69
2021/03/20 02:18:01;;;;;;;4.07;3.00;;;2.70;99.90;;;;;;5015068;28;20426;-70
2021/03/20 02:20:41;;;;;;;7.30;4.07;;;2.60;99.90;;;;;;4994051;28;20833;-71
2021/03/20 02:23:09;;;;;;;5.87;3.53;;;2.50;99.90;;;;;;4994378;28;20490;-70
2021/03/20 02:26:24;;;;;;;5.17;3.53;;;2.60;99.90;;;;;;4994418;28;20414;-70
2021/03/20 02:29:34;;;;;;;3.60;3.30;;;2.60;99.90;;;;;;4994240;28;20414;-71
2021/03/20 02:32:37;;;;;;;3.90;3.50;;;2.70;99.90;;;;;;5033496;28;20433;-70
2021/03/20 02:35:11;;;;;;;4.53;4.13;;;2.70;99.90;;;;;;5033304;28;20397;-70
2021/03/20 02:37:55;;;;;;;4.30;3.80;;;2.70;99.90;;;;;;5033891;28;20406;-70
2021/03/20 02:40:40;;;;;;;3.97;3.60;;;2.60;99.90;;;;;;5031280;28;20485;-71
2021/03/20 02:43:09;;;;;;;4.00;3.60;;;2.60;99.90;;;;;;5034401;28;20859;-71
2021/03/20 02:45:41;;;;;;;3.70;3.40;;;2.60;99.90;;;;;;5034931;28;20410;-71
2021/03/20 02:48:30;;;;;;;4.10;3.70;;;2.60;99.90;;;;;;5036964;28;20456;-70
2021/03/20 02:51:03;;;;;;;5.90;3.30;;;2.60;99.90;;;;;;5035474;28;20781;-71
2021/03/20 02:54:07;;;;;;;4.37;3.40;;;2.60;99.90;;;;;;5035903;28;20479;-71
2021/03/20 02:56:58;;;;;;;3.70;3.20;;;2.50;99.90;;;;;;4996173;28;20909;-70
2021/03/20 02:59:29;;;;;;;3.70;3.07;;;2.50;99.90;;;;;;5029544;28;20413;-70
2021/03/20 03:01:58;;;;;;;4.83;3.70;;;2.40;99.90;;;;;;5037366;28;20899;-70
2021/03/20 03:04:28;;;;;;;4.77;4.17;;;2.40;99.90;;;;;;5037232;28;20806;-70
2021/03/20 03:07:03;;;;;;;2.97;2.67;;;2.30;99.90;;;;;;5037123;28;20406;-70
2021/03/20 03:09:51;;;;;;;3.23;3.03;;;2.30;99.90;;;;;;5036291;28;20488;-70
2021/03/20 03:12:25;;;;;;;4.03;3.20;;;2.40;99.90;;;;;;5024200;28;20457;-70
2021/03/20 03:15:05;;;;;;;3.60;2.63;;;2.40;99.90;;;;;;5036617;28;20460;-70
2021/03/20 03:17:35;;;;;;;3.33;2.90;;;2.50;99.90;;;;;;5036958;28;20479;-70
2021/03/20 03:20:13;;;;;;;4.07;3.23;;;2.60;99.90;;;;;;5037173;28;20425;-70
2021/03/20 03:22:55;;;;;;;4.10;2.87;;;2.60;99.80;;;;;;5027961;28;20476;-71
2021/03/20 03:25:24;;;;;;;4.43;2.90;;;2.50;99.90;;;;;;5017752;28;20403;-69
2021/03/20 03:27:53;;;;;;;3.00;2.70;;;2.30;99.90;;;;;;5026627;28;20406;-69
2021/03/20 03:30:21;;;;;;;3.40;2.77;;;2.30;99.90;;;;;;5032124;28;20486;-70
2021/03/20 03:32:51;;;;;;;3.93;3.30;;;2.30;99.90;;;;;;5018976;28;20566;-69
2021/03/20 03:35:22;;;;;;;4.37;3.33;;;2.30;99.90;;;;;;5027103;28;20402;-70
2021/03/20 03:38:01;;;;;;;4.33;3.17;;;2.30;99.90;;;;;;5031048;28;20399;-71
2021/03/20 03:41:23;;;;;;;3.80;3.20;;;2.20;99.90;;;;;;5023750;28;20454;-71
2021/03/20 03:43:51;;;;;;;3.60;3.20;;;2.30;99.90;;;;;;4994302;28;20431;-70
2021/03/20 03:46:23;;;;;;;3.90;2.87;;;2.30;99.80;;;;;;4994874;28;20423;-70
2021/03/20 03:48:57;;;;;;;3.00;2.67;;;2.30;99.70;;;;;;4994443;28;20415;-70
2021/03/20 03:51:24;;;;;;;3.53;2.80;;;2.10;99.70;;;;;;4994649;28;20526;-70
2021/03/20 03:53:51;;;;;;;5.33;3.87;;;2.00;99.80;;;;;;4994409;28;20451;-71
2021/03/20 03:56:35;;;;;;;4.77;2.77;;;2.00;99.90;;;;;;4993880;28;20420;-70
2021/03/20 03:59:19;;;;;;;2.93;2.63;;;2.10;99.70;;;;;;4994011;28;20414;-71
2021/03/20 04:02:14;;;;;;;3.30;3.00;;;1.90;99.60;;;;;;4994533;28;20459;-71
2021/03/20 04:04:49;;;;;;;4.90;3.20;;;1.90;99.70;;;;;;4994192;28;20415;-70
2021/03/20 04:07:21;;;;;;;4.33;3.20;;;1.90;99.70;;;;;;4994546;28;20407;-70
2021/03/20 04:10:03;;;;;;;4.83;3.77;;;1.80;99.60;;;;;;4993213;28;21077;-70
2021/03/20 04:12:46;;;;;;;4.17;3.00;;;1.80;99.70;;;;;;4977638;28;20482;-70
2021/03/20 04:15:30;;;;;;;4.97;3.07;;;1.70;99.80;;;;;;4994120;28;20428;-70
2021/03/20 04:18:19;;;;;;;4.10;2.93;;;1.70;99.80;;;;;;4977334;28;20415;-70
2021/03/20 04:20:49;;;;;;;4.00;3.03;;;1.70;99.70;;;;;;5035714;28;20429;-69
2021/03/20 04:23:24;;;;;;;3.67;3.07;;;1.60;99.60;;;;;;5035419;28;20459;-69
2021/03/20 04:26:16;;;;;;;3.20;2.67;;;1.70;99.70;;;;;;5034067;28;20418;-71
2021/03/20 04:29:07;;;;;;;4.20;3.40;;;1.70;99.70;;;;;;5035090;28;20457;-71
2021/03/20 04:31:39;;;;;;;3.40;3.00;;;1.70;99.60;;;;;;5019255;28;20466;-71
2021/03/20 04:34:22;;;;;;;4.17;2.90;;;1.70;99.60;;;;;;5015749;28;20502;-71
2021/03/20 04:36:56;;;;;;;3.87;2.97;;;1.50;99.60;;;;;;5016279;28;20511;-71
2021/03/20 04:39:26;;;;;;;5.57;3.03;;;1.50;99.90;;;;;;5015547;28;20403;-71
2021/03/20 04:41:53;;;;;;;3.93;3.50;;;1.50;99.90;;;;;;5014351;28;20434;-71
2021/03/20 04:44:19;;;;;;;2.70;2.50;;;1.40;99.90;;;;;;5014230;28;20981;-71
2021/03/20 04:46:45;;;;;;;5.40;3.20;;;1.40;99.90;;;;;;5014321;28;20429;-71
2021/03/20 04:49:35;;;;;;;3.57;3.23;;;1.40;99.90;;;;;;5033286;28;20460;-71
2021/03/20 04:52:26;;;;;;;5.57;3.10;;;1.40;99.90;;;;;;5034146;28;20454;-70
2021/03/20 04:54:52;;;;;;;3.33;2.87;;;1.50;99.90;;;;;;5029700;28;20414;-70
2021/03/20 04:57:31;;;;;;;3.17;2.53;;;1.50;99.80;;;;;;5034958;28;20501;-70
2021/03/20 05:00:14;;;;;;;5.67;3.10;;;1.60;99.90;;;;;;4995275;28;20203;-70
2021/03/20 05:02:45;;;;;;;3.27;2.97;;;1.60;99.50;;;;;;4996442;28;20416;-70
2021/03/20 05:05:23;;;;;;;6.00;3.40;;;1.50;99.40;;;;;;4996337;28;20945;-70
2021/03/20 05:07:49;;;;;;;3.13;2.43;;;1.40;99.50;;;;;;4995372;28;20449;-71
2021/03/20 05:10:37;;;;;;;5.17;3.73;;;1.30;99.70;;;;;;5015682;28;20477;-70
2021/03/20 05:13:05;;;;;;;4.43;3.80;;;1.10;99.90;;;;;;5015754;28;20473;-70
2021/03/20 05:15:33;;;;;;;4.33;3.60;;;1.10;99.90;;;;;;5015321;28;20402;-71
2021/03/20 05:17:59;;;;;;;3.27;2.97;;;1.20;99.90;;;;;;5013749;28;20407;-71
2021/03/20 05:20:25;;;;;;;5.93;3.13;;;1.10;99.90;;;;;;5015794;28;20525;-71
2021/03/20 05:22:51;;;;;;;3.10;2.80;;;1.20;99.90;;;;;;5015011;28;20493;-71
2021/03/20 05:25:19;;;;;;;5.40;3.30;;;1.30;99.90;;;;;;5014554;28;20172;-71
2021/03/20 05:27:45;;;;;;;4.97;3.30;;;1.40;99.90;;;;;;5014773;28;20418;-71
2021/03/20 05:30:13;;;;;;;7.60;3.07;;;1.40;99.90;;;;;;5015739;28;20442;-71
2021/03/20 05:32:38;;;;;;;4.93;3.23;;;1.40;99.70;;;;;;5014064;28;20521;-71
2021/03/20 05:35:12;;;;;;;4.90;3.53;;;1.30;99.80;;;;;;5014567;28;20916;-71
2021/03/20 05:37:41;;;;;;;3.43;2.90;;;1.30;99.70;;;;;;5014373;28;20184;-71
2021/03/20 05:40:17;;;;;;;6.73;3.70;;;1.20;99.90;;;;;;5015248;28;20565;-71
2021/03/20 05:43:07;;;;;;;6.60;3.10;;;1.00;99.90;;;;;;4994601;28;20419;-71
2021/03/20 05:45:41;;;;;;;4.80;3.13;;;0.90;99.90;;;;;;4994754;28;20747;-72
2021/03/20 05:48:19;;;;;;;5.60;4.05;;;0.90;99.90;;;;;;4994583;28;20415;-72
2021/03/20 05:51:05;;;;;;;5.20;3.90;;;0.90;99.90;;;;;;4995508;28;20271;-71
2021/03/20 05:53:31;;;;;;;4.67;4.20;;;0.90;99.90;;;;;;4994456;28;20419;-71
2021/03/20 05:55:59;;;;;;;5.00;3.30;;;0.90;99.90;;;;;;4994731;28;20406;-71
2021/03/20 05:58:51;;;;;;;3.40;3.10;;;0.80;99.90;;;;;;4994315;28;20173;-71
2021/03/20 06:01:37;;;;;;;4.50;2.90;;;0.90;99.90;;;;;;4995063;28;20412;-72
2021/03/20 06:04:22;;;;;;;3.50;3.07;;;1.00;99.90;;;;;;4994639;28;20399;-71
2021/03/20 06:07:12;;;;;;;10.37;3.43;;;1.20;99.90;;;;;;4994012;28;20965;-71
2021/03/20 06:09:52;;;;;;;5.07;3.30;;;1.30;99.90;;;;;;4994466;28;20399;-71
2021/03/20 06:12:59;;;;;;;6.47;3.80;;;1.50;99.90;;;;;;4998167;28;20466;-71
2021/03/20 06:15:41;;;;;;;3.60;3.30;;;1.60;99.90;;;;;;5013972;28;20417;-71
2021/03/20 06:18:18;;;;;;;4.40;3.90;;;1.80;99.90;;;;;;5014075;28;20896;-71
2021/03/20 06:20:59;;;;;;;4.30;3.90;;;1.90;99.60;;;;;;5023382;28;20444;-71
2021/03/20 06:23:53;;;;;;;20.53;4.20;;;1.90;99.30;;;;;;5037470;28;20417;-71
2021/03/20 06:26:25;;;;;;;10.83;4.00;;;1.90;99.20;;;;;;5037339;28;20410;-71
2021/03/20 06:28:59;;;;;;;3.87;3.47;;;1.90;99.20;;;;;;5037100;28;20397;-71
2021/03/20 06:31:28;;;;;;;4.37;3.97;;;2.00;99.20;;;;;;5035634;28;20465;-71
2021/03/20 06:34:12;;;;;;;4.40;4.00;;;2.10;99.10;;;;;;5037473;28;20421;-71
2021/03/20 06:36:46;;;;;;;8.57;4.00;;;2.10;99.00;;;;;;5037656;28;20405;-71
2021/03/20 06:39:18;;;;;;;5.30;4.03;;;2.00;98.90;;;;;;5036925;28;20431;-71
2021/03/20 06:41:52;;;;;;;4.00;3.40;;;1.90;99.00;;;;;;5017084;28;20477;-71
2021/03/20 06:44:30;;;;;;;5.20;3.77;;;1.80;99.10;;;;;;5015451;28;20457;-71
2021/03/20 06:46:56;;;;;;;6.13;4.00;;;1.80;99.30;;;;;;5001942;28;20907;-71
2021/03/20 06:49:25;;;;;;;4.27;3.87;;;1.80;99.40;;;;;;5008299;28;20417;-71
2021/03/20 06:51:53;;;;;;;4.27;3.87;;;1.90;99.30;;;;;;5018759;28;20786;-71
2021/03/20 06:54:21;;;;;;;4.90;3.47;;;1.90;99.20;;;;;;5008528;28;20450;-71
2021/03/20 06:56:49;;;;;;;4.07;3.20;;;1.90;99.00;;;;;;4997724;28;20494;-71
2021/03/20 06:59:16;;;;;;;5.10;3.30;;;1.90;98.90;;;;;;4998685;28;20430;-71
2021/03/20 07:02:29;;;;;;;5.03;3.47;;;2.00;99.00;;;;;;5006602;28;20494;-71
2021/03/20 07:05:34;;;;;;;4.37;3.97;;;2.10;99.20;;;;;;4933668;29;20486;-71
2021/03/20 07:08:00;;;;;;;6.23;3.77;;;2.30;99.00;;;;;;4934707;29;20439;-71
2021/03/20 07:10:50;;;;;;;4.27;3.90;;;2.50;98.60;;;;;;4937000;29;20873;-71
2021/03/20 07:13:18;;;;;;;5.23;3.80;;;2.60;98.50;;;;;;4939556;29;20305;-71
2021/03/20 07:15:44;;;;;;;5.33;3.60;;;2.80;98.20;;;;;;4942675;29;20454;-71
2021/03/20 07:18:30;;;;;;;4.80;3.87;;;3.00;98.00;;;;;;4937979;29;20489;-71
2021/03/20 07:20:58;;;;;;;4.23;3.57;;;3.10;97.50;;;;;;4918830;29;20447;-72
2021/03/20 07:23:25;;;;;;;4.50;4.03;;;3.10;97.50;;;;;;4936427;29;20439;-71
2021/03/20 07:26:06;;;;;;;3.97;3.57;;;3.20;97.40;;;;;;4936766;29;20449;-71
2021/03/20 07:28:32;;;;;;;6.17;4.20;;;3.20;97.10;;;;;;4937085;29;20522;-71
2021/03/20 07:31:11;;;;;;;6.63;4.33;;;3.30;97.10;;;;;;4936817;29;20474;-71
2021/03/20 07:33:48;;;;;;;6.10;4.70;;;3.20;97.00;;;;;;4937380;29;20422;-71
2021/03/20 07:36:18;;;;;;;4.80;3.90;;;3.30;97.20;;;;;;4921278;29;20424;-71
2021/03/20 07:38:46;;;;;;;12.03;4.67;;;3.40;97.20;;;;;;4952810;28;20427;-71
2021/03/20 07:41:14;;;;;;;5.97;4.47;;;3.60;97.00;;;;;;4996390;28;20477;-71
2021/03/20 07:43:40;;;;;;;4.47;4.07;;;3.80;96.80;;;;;;4996748;28;20420;-71
2021/03/20 07:46:13;;;;;;;5.33;4.30;;;3.90;96.50;;;;;;5005278;28;20446;-71
2021/03/20 07:48:40;;;;;;;12.47;4.37;;;3.90;96.30;;;;;;5003637;28;20436;-71
2021/03/20 07:51:17;;;;;;;5.70;4.30;;;3.90;95.90;;;;;;4996472;28;20509;-71
2021/03/20 07:53:46;;;;;;;5.07;4.47;;;3.80;95.90;;;;;;4997020;28;20419;-71
2021/03/20 07:56:12;;;;;;;6.00;4.13;;;3.60;96.00;;;;;;5003473;28;20762;-71
2021/03/20 07:58:40;;;;;;;5.70;4.13;;;3.60;96.20;;;;;;5015579;28;20472;-71
2021/03/20 08:01:11;;;;;;;7.13;4.80;;;3.60;96.30;;;;;;5007564;28;20265;-71
2021/03/20 08:03:57;;;;;;;4.03;3.63;;;3.60;96.40;;;;;;5006150;28;20461;-71
2021/03/20 08:06:34;;;;;;;5.60;4.70;;;3.70;96.40;;;;;;5004457;28;20444;-70
2021/03/20 08:09:12;;;;;;;7.90;4.33;;;3.70;96.20;;;;;;5003007;28;20774;-72
2021/03/20 08:11:38;;;;;;;5.13;4.33;;;3.80;96.10;;;;;;5016434;28;20502;-71
2021/03/20 08:14:28;;;;;;;6.10;4.27;;;3.70;95.50;;;;;;5014271;28;20897;-69
2021/03/20 08:16:53;;;;;;;5.50;4.90;;;3.50;95.90;;;;;;4996285;28;20436;-72
2021/03/20 08:19:20;;;;;;;3.93;3.57;;;3.50;95.30;;;;;;5035137;28;20508;-71
2021/03/20 08:22:11;;;;;;;5.90;3.90;;;3.50;94.60;;;;;;5035135;28;20221;-71
2021/03/20 08:24:49;;;;;;;3.50;3.20;;;3.40;93.90;;;;;;5022249;28;20456;-71
2021/03/20 08:27:31;;;;;;;4.20;3.13;;;3.40;93.50;;;;;;5019215;28;20570;-72
2021/03/20 08:30:02;;;;;;;3.90;3.50;;;3.50;93.20;;;;;;5010719;28;20557;-73
2021/03/20 08:33:00;;;;;;;3.90;3.50;;;3.70;93.10;;;;;;5001407;28;20966;-73
2021/03/20 08:36:01;;;;;;;4.00;3.40;;;3.60;92.10;;;;;;4997592;28;20418;-72
2021/03/20 08:38:59;;;;;;;4.20;2.93;;;3.60;91.80;;;;;;5006676;28;20422;-72
2021/03/20 08:41:45;;;;;;;3.40;2.83;;;3.60;92.00;;;;;;5014977;28;20535;-71
2021/03/20 08:44:26;;;;;;;4.23;3.20;;;3.80;91.90;;;;;;5015088;28;20413;-72
2021/03/20 08:47:18;;;;;;;3.43;3.03;;;3.90;91.90;;;;;;5030526;28;20425;-73
2021/03/20 08:49:49;;;;;;;4.57;3.10;;;3.90;92.40;;;;;;5028711;28;20444;-72
2021/03/20 08:52:44;;;;;;;3.50;2.83;;;3.80;90.80;;;;;;5015735;28;20512;-72
2021/03/20 08:55:46;;;;;;;3.30;2.80;;;3.80;90.90;;;;;;5011210;28;20475;-71
2021/03/20 08:58:21;;;;;;;3.70;2.70;;;3.90;90.40;;;;;;5014957;28;20443;-71
2021/03/20 09:00:52;;;;;;;2.63;2.43;;;3.90;90.40;;;;;;5024268;28;20450;-72
2021/03/20 09:03:23;;;;;;;7.73;3.23;;;3.90;90.30;;;;;;5034161;28;20798;-72
2021/03/20 09:05:57;;;;;;;7.30;4.03;;;3.90;90.10;;;;;;5033938;28;20421;-71
2021/03/20 09:08:29;;;;;;;5.50;3.30;;;3.90;89.20;;;;;;5034049;28;20407;-72
2021/03/20 09:11:25;;;;;;;4.00;3.60;;;3.80;89.30;;;;;;5031984;28;20804;-72
2021/03/20 09:14:05;;;;;;;2.97;2.77;;;3.90;90.00;;;;;;4994371;28;20471;-72
2021/03/20 09:16:52;;;;;;;3.40;2.90;;;4.00;90.00;;;;;;4992946;28;20403;-71
2021/03/20 09:19:30;;;;;;;3.20;2.90;;;4.20;89.80;;;;;;4992960;28;20446;-71
2021/03/20 09:22:05;;;;;;;4.10;3.00;;;4.50;89.10;;;;;;5005330;28;20513;-71
2021/03/20 09:24:31;;;;;;;4.60;2.87;;;4.70;86.60;;;;;;5014640;28;20429;-71
2021/03/20 09:27:02;;;;;;;3.80;3.10;;;4.70;84.10;;;;;;5013714;28;20444;-71
2021/03/20 09:29:33;;;;;;;4.17;2.67;;;4.80;84.60;;;;;;5013910;28;20442;-72
2021/03/20 09:32:06;;;;;;;3.57;3.17;;;4.90;83.40;;;;;;5016984;28;20461;-72
2021/03/20 09:34:34;;;;;;;5.33;2.77;;;5.20;81.30;;;;;;5013927;28;20880;-71
2021/03/20 09:37:18;;;;;;;3.10;2.70;;;5.20;78.30;;;;;;5028871;28;20485;-71
2021/03/20 09:39:46;;;;;;;3.80;2.80;;;5.10;78.10;;;;;;5032760;28;20447;-72
2021/03/20 09:42:24;;;;;;;2.60;2.40;;;5.30;78.60;;;;;;5011956;28;20880;-72
2021/03/20 09:45:11;;;;;;;2.90;2.60;;;5.50;77.70;;;;;;5008207;28;20434;-72
2021/03/20 09:47:48;;;;;;;4.13;2.60;;;5.60;76.60;;;;;;5017880;28;20532;-72
2021/03/20 09:50:19;;;;;;;2.90;2.60;;;5.60;74.30;;;;;;5024138;28;20446;-72
2021/03/20 09:52:46;;;;;;;2.57;2.30;;;5.60;74.20;;;;;;5002317;28;20513;-71
2021/03/20 09:55:30;;;;;;;3.03;2.50;;;5.60;74.80;;;;;;4993582;28;20412;-71
2021/03/20 09:58:18;;;;;;;2.83;2.50;;;5.40;73.90;;;;;;5013778;28;20426;-73
2021/03/20 10:00:59;;;;;;;3.83;2.80;;;5.60;73.00;;;;;;5003929;28;20466;-71
2021/03/20 10:03:42;;;;;;;2.93;2.47;;;5.70;72.80;;;;;;5014109;28;20421;-70
2021/03/20 10:06:19;;;;;;;3.00;2.70;;;6.00;71.20;;;;;;5013878;28;20411;-70
2021/03/20 10:09:00;;;;;;;2.80;2.60;;;6.20;69.50;;;;;;5014928;28;20433;-71
2021/03/20 10:11:38;;;;;;;2.33;2.00;;;6.40;66.40;;;;;;5020481;28;20531;-72
2021/03/20 10:14:25;;;;;;;2.20;2.00;;;6.20;60.30;;;;;;5032033;28;20759;-71
2021/03/20 10:17:16;;;;;;;3.60;2.53;;;6.40;62.30;;;;;;5032329;28;20420;-71
2021/03/20 10:19:53;;;;;;;2.97;2.67;;;6.60;61.90;;;;;;5025808;28;20422;-71
2021/03/20 10:22:29;;;;;;;2.90;2.40;;;6.70;62.00;;;;;;5003587;28;20565;-70
2021/03/20 10:24:55;;;;;;;2.93;2.40;;;6.90;62.60;;;;;;5021688;28;20496;-70
2021/03/20 10:27:32;;;;;;;4.23;2.70;;;6.90;62.00;;;;;;5008551;28;21288;-71
2021/03/20 10:30:16;;;;;;;3.97;2.40;;;6.90;61.90;;;;;;5023937;28;21016;-70
2021/03/20 10:32:56;;;;;;;3.30;2.60;;;6.80;59.50;;;;;;5015714;28;20450;-71
2021/03/20 10:35:21;;;;;;;3.13;2.13;;;7.00;60.00;;;;;;4997879;28;20837;-71
2021/03/20 10:37:47;;;;;;;3.27;2.93;;;7.10;59.50;;;;;;5023455;28;20450;-72
2021/03/20 10:40:25;;;;;;;2.80;2.30;;;7.00;57.90;;;;;;5012526;28;20628;-70
2021/03/20 10:42:56;;;;;;;3.43;2.53;;;7.00;57.70;;;;;;5026264;28;20183;-70
2021/03/20 10:45:32;;;;;;;2.77;2.27;;;7.00;56.80;;;;;;5009871;28;20440;-71
2021/03/20 10:48:38;;;;;;;3.93;2.70;;;6.90;56.90;;;;;;5037322;28;20453;-71
2021/03/20 10:51:08;;;;;;;2.97;2.40;;;6.70;57.70;;;;;;5018826;28;20462;-71
2021/03/20 10:53:39;;;;;;;3.20;2.50;;;6.80;57.70;;;;;;5045759;28;20460;-71
2021/03/20 10:56:05;;;;;;;3.23;2.93;;;6.80;56.00;;;;;;5042461;28;20417;-71
2021/03/20 10:58:40;;;;;;;4.03;2.77;;;6.90;57.20;;;;;;5018298;28;20510;-71
2021/03/20 11:01:07;;;;;;;3.57;2.80;;;7.20;57.60;;;;;;5009089;28;20483;-70
2021/03/20 11:03:41;;;;;;;3.13;2.53;;;7.50;57.50;;;;;;5000684;28;20446;-70
2021/03/20 11:06:27;;;;;;;3.33;2.93;;;7.80;57.00;;;;;;5007659;28;20426;-71
2021/03/20 11:09:04;;;;;;;2.77;2.57;;;7.60;55.10;;;;;;5030784;28;20433;-69
2021/03/20 11:11:35;;;;;;;2.27;2.07;;;7.40;54.10;;;;;;5005784;28;20480;-70
2021/03/20 11:14:21;;;;;;;3.00;2.70;;;7.30;53.80;;;;;;5024564;28;20880;-71
2021/03/20 11:17:06;;;;;;;4.10;2.60;;;7.30;52.60;;;;;;5023297;28;20433;-70
2021/03/20 11:19:37;;;;;;;2.43;2.23;;;7.40;51.10;;;;;;5003445;28;20399;-71
2021/03/20 11:22:26;;;;;;;2.43;2.23;;;7.50;48.70;;;;;;5022469;28;20965;-71
2021/03/20 11:24:54;;;;;;;2.53;2.17;;;7.40;48.40;;;;;;5027093;28;20504;-70
2021/03/20 11:27:33;;;;;;;2.50;2.30;;;7.30;49.30;;;;;;5022507;28;20521;-70
2021/03/20 11:30:15;;;;;;;3.60;2.33;;;7.40;49.70;;;;;;5019434;28;20834;-71
2021/03/20 11:32:44;;;;;;;3.40;2.33;;;7.20;50.20;;;;;;5016738;28;20508;-72
2021/03/20 11:35:29;;;;;;;2.50;2.20;;;7.10;50.20;;;;;;5031909;28;20414;-70
2021/03/20 11:38:00;;;;;;;2.40;2.20;;;7.00;50.80;;;;;;5020084;28;20785;-70
2021/03/20 11:40:39;;;;;;;2.67;2.47;;;7.00;50.30;;;;;;5020315;28;20468;-71
2021/03/20 11:43:30;;;;;;;2.83;2.50;;;6.80;52.80;;;;;;5029983;28;20421;-70
2021/03/20 11:46:09;;;;;;;4.07;2.60;;;6.70;53.90;;;;;;5022858;28;20943;-70
2021/03/20 11:48:39;;;;;;;3.57;2.97;;;6.70;54.20;;;;;;5026068;28;20552;-71
2021/03/20 11:51:11;;;;;;;2.67;2.43;;;6.70;53.90;;;;;;5017105;28;20948;-71
2021/03/20 11:53:47;;;;;;;2.60;2.40;;;7.00;53.70;;;;;;5027430;28;20433;-70
2021/03/20 11:56:20;;;;;;;2.83;2.40;;;6.90;49.20;;;;;;5016936;28;20852;-71
2021/03/20 11:59:41;;;;;;;2.53;2.10;;;6.80;48.70;;;;;;5018287;28;20438;-71
2021/03/20 12:02:12;;;;;;;1.83;1.73;;;6.60;48.10;;;;;;4945867;28;20514;-69
2021/03/20 12:04:38;;;;;;;2.67;2.47;;;6.60;47.70;;;;;;4959444;28;20432;-72
2021/03/20 12:07:19;;;;;;;1.77;1.63;;;6.70;46.90;;;;;;4971781;28;20420;-69
2021/03/20 12:09:45;;;;;;;2.43;2.23;;;6.70;45.40;;;;;;4952635;28;20491;-71
2021/03/20 12:12:10;;;;;;;2.53;2.33;;;6.70;45.70;;;;;;4962783;28;20495;-71
2021/03/20 12:14:46;;;;;;;2.43;1.97;;;6.80;44.70;;;;;;4955575;28;20224;-73
2021/03/20 12:17:11;;;;;;;2.07;1.63;;;6.70;43.40;;;;;;4953838;28;20178;-70
2021/03/20 12:20:00;;;;;;;1.80;1.53;;;6.70;40.70;;;;;;4957375;28;20451;-71
2021/03/20 12:22:49;;;;;;;1.83;1.73;;;6.70;39.30;;;;;;4960380;28;20189;-72
2021/03/20 12:25:36;;;;;;;2.90;1.50;;;6.80;38.10;;;;;;4953973;28;20429;-70
2021/03/20 12:28:24;;;;;;;2.30;1.47;;;6.90;38.00;;;;;;4944308;28;20436;-69
2021/03/20 12:31:24;;;;;;;2.60;2.03;;;7.00;39.40;;;;;;4955616;28;20453;-71
2021/03/20 12:34:06;;;;;;;3.60;2.50;;;7.20;40.50;;;;;;4946829;28;20424;-70
2021/03/20 12:36:48;;;;;;;2.70;1.97;;;7.20;41.10;;;;;;4957127;28;20845;-72
2021/03/20 12:39:15;;;;;;;4.93;2.57;;;7.20;42.00;;;;;;5013932;28;20413;-70
2021/03/20 12:41:44;;;;;;;2.00;1.90;;;7.20;41.00;;;;;;5011813;28;20453;-70
2021/03/20 12:44:12;;;;;;;2.17;1.97;;;7.00;39.10;;;;;;5011732;28;20421;-69
2021/03/20 12:46:41;;;;;;;2.10;1.90;;;6.90;38.10;;;;;;5026751;28;20483;-69
2021/03/20 12:49:08;;;;;;;3.50;2.03;;;6.80;39.00;;;;;;5029620;28;20906;-71
2021/03/20 12:51:35;;;;;;;2.40;2.03;;;6.70;39.60;;;;;;5026370;28;20458;-71
2021/03/20 12:54:01;;;;;;;2.20;2.00;;;6.80;40.20;;;;;;5021008;28;20419;-72
2021/03/20 12:56:26;;;;;;;2.60;2.40;;;6.90;40.90;;;;;;5019283;28;20497;-70
2021/03/20 12:58:52;;;;;;;2.43;2.20;;;7.00;42.20;;;;;;5016972;28;20234;-70
2021/03/20 13:01:17;;;;;;;4.90;3.23;;;6.90;42.30;;;;;;5026650;28;20203;-70
2021/03/20 13:03:43;;;;;;;2.90;2.07;;;6.90;43.00;;;;;;5017052;28;20213;-70
2021/03/20 13:06:09;;;;;;;2.70;2.43;;;6.90;43.80;;;;;;5021385;28;21163;-70
2021/03/20 13:08:37;;;;;;;4.77;2.83;;;6.90;44.40;;;;;;5021419;28;20183;-72
2021/03/20 13:11:05;;;;;;;3.37;3.07;;;6.90;44.00;;;;;;5028009;28;20457;-71
2021/03/20 13:13:31;;;;;;;4.20;2.30;;;6.90;44.00;;;;;;5016408;28;20453;-71
2021/03/20 13:15:56;;;;;;;2.50;2.23;;;7.00;44.00;;;;;;5025749;28;20425;-69
2021/03/20 13:18:22;;;;;;;2.40;2.30;;;7.10;44.10;;;;;;5019087;28;20181;-71
2021/03/20 13:20:48;;;;;;;3.13;2.50;;;7.30;44.60;;;;;;5027330;28;20352;-71
2021/03/20 13:23:14;;;;;;;3.07;2.80;;;7.40;44.60;;;;;;5014430;28;20203;-70
2021/03/20 13:25:41;;;;;;;3.00;2.70;;;7.60;44.10;;;;;;5024963;28;20837;-70
2021/03/20 13:28:08;;;;;;;3.10;2.60;;;7.80;44.40;;;;;;5020818;28;20414;-70
2021/03/20 13:30:39;;;;;;;3.30;2.53;;;7.80;44.00;;;;;;5026274;28;20491;-70
2021/03/20 13:33:05;;;;;;;3.37;2.20;;;8.10;45.00;;;;;;5029464;28;20457;-70
2021/03/20 13:35:33;;;;;;;4.67;2.53;;;8.40;43.30;;;;;;5015373;28;20430;-69
2021/03/20 13:37:59;;;;;;;2.23;2.03;;;8.60;42.80;;;;;;5030397;28;20413;-70
2021/03/20 13:40:27;;;;;;;2.53;2.33;;;8.90;42.70;;;;;;5018480;28;20966;-71